• Join FlightAware (Why Join?)
  • Login
  • US Flag 
11:31AM EDT


 

Airport Tracker/Info


-or-


 

Live Flight TrackerFlight Track Log ✈ N423S ✈ 30-Nov-2013 ✈ KJYR - KDAY

Flight Track Log - Related Links

Times and Time Zones

All times are in EST time to prevent confusion due to time zone crossing. See the N423S flight status page for this flight to view local times or setup timezone preferences in your user account.

Time Position Orientation Groundspeed Altitude Reporting Facility
EST Latitude Longitude Course Direction KTS MPH feet Rate Location/Type
12:37PM 40.9250 -97.5094 99° East 121 139 4,500  Level Minneapolis Center
12:38PM 40.9194 -97.4631 99° East 125 144 5,100 480 Climbing Minneapolis Center
12:39PM 40.9097 -97.4178 106° East 128 147 5,600 480 Climbing Minneapolis Center
12:40PM 40.9047 -97.3708 98° East 133 153 6,100 480 Climbing Minneapolis Center
12:41PM 40.9078 -97.3208 85° East 135 155 6,700 600 Climbing Minneapolis Center
12:42PM 40.9061 -97.2703 92° East 137 158 7,400 540 Climbing Minneapolis Center
12:43PM 40.9064 -97.2206 90° East 135 155 7,900 480 Climbing Minneapolis Center
12:44PM 40.9050 -97.1567 92° East 142 163 8,500 600 Climbing Minneapolis Center
12:45PM 40.9053 -97.1033 90° East 144 166 9,200 600 Climbing Minneapolis Center
12:46PM 40.9017 -97.0483 95° East 148 170 9,800 600 Climbing Minneapolis Center
12:46PM 40.8878 -97.0275 131° Southeast 149 171 10,000 480 Climbing Minneapolis Center
12:47PM 40.9019 -96.9947 60° Northeast 147 169 10,300 480 Climbing Minneapolis Center
12:49PM 40.8786 -96.9000 101° East  Level FlightAware Approximate
12:49PM 40.8886 -96.8950 101° East 154 177 11,200  Level Minneapolis Center
12:49PM 40.8994 -96.8814 44° Northeast 153 176 11,400 540 Climbing Minneapolis Center
12:50PM 40.8869 -96.8292 108° East 157 181 11,900 540 Climbing Minneapolis Center
12:50PM 40.8994 -96.8253 13° North 152 175 12,000 480 Climbing Minneapolis Center
12:51PM 40.8872 -96.7631 105° East 156 180 12,500 540 Climbing Minneapolis Center
12:51PM 40.8964 -96.7567 28° Northeast 155 178 12,600 600 Climbing Minneapolis Center
12:52PM 40.8858 -96.7053 105° East 156 180 13,100 480 Climbing Minneapolis Center
12:52PM 40.8967 -96.6986 25° Northeast 157 181 13,100  Level Minneapolis Center
12:53PM 40.8858 -96.6694 116° Southeast 162 186 13,100  Level Minneapolis Center
12:53PM 40.8958 -96.6347 69° East 169 194 13,100  Level Minneapolis Center
12:54PM 40.8844 -96.5758 104° East 196 226 13,100  Level Minneapolis Center
12:54PM 40.8933 -96.5614 51° Northeast 192 221 13,100  Level Minneapolis Center
12:55PM 40.8853 -96.5233 106° East 201 231 13,100  Level Minneapolis Center
12:55PM 40.8917 -96.4869 77° East 201 231 13,100  Level Minneapolis Center
12:56PM 40.8836 -96.4244 100° East 204 235 13,100 -120 Level Minneapolis Center
12:57PM 40.8828 -96.3778 91° East 202 232 13,000  Descending Minneapolis Center
12:57PM 40.8875 -96.3236 83° East 202 232 13,100 60 Climbing Minneapolis Center
12:58PM 40.8811 -96.2842 102° East 202 232 13,100  Level Minneapolis Center
12:58PM 40.8844 -96.2497 83° East 202 232 13,100  Level Minneapolis Center
12:59PM 40.8786 -96.2128 102° East 202 232 13,100  Level Minneapolis Center
12:59PM 40.8828 -96.1758 82° East 202 232 13,100  Level Minneapolis Center
01:00PM 40.8786 -96.1494 102° East 201 231 13,100  Level Minneapolis Center
01:01PM 40.8800 -96.1022 88° East 202 232 13,100  Level Minneapolis Center
01:01PM 40.8761 -96.0753 101° East 203 234 13,100  Level Minneapolis Center
01:02PM 40.8778 -96.0281 87° East 203 234 13,100  Level Minneapolis Center
01:02PM 40.8758 -96.0092 98° East 203 234 13,100  Level Minneapolis Center
01:03PM 40.8750 -95.9536 91° East 203 234 13,100  Level Minneapolis Center
01:03PM 40.8747 -95.9267 91° East 205 236 13,100 -120 Level Minneapolis Center
01:04PM 40.8725 -95.8636 93° East 205 236 13,000  Descending Minneapolis Center
01:04PM 40.8731 -95.8414 88° East 206 237 13,100 60 Climbing Minneapolis Center
01:05PM 40.8697 -95.7894 95° East 205 236 13,100  Level Minneapolis Center
01:05PM 40.8722 -95.7669 82° East 205 236 13,100 -120 Level Minneapolis Center
01:06PM 40.8681 -95.7150 96° East 204 235 13,000  Descending Minneapolis Center
01:07PM 40.8650 -95.6414 93° East 203 234 13,100  Climbing Minneapolis Center
01:08PM 40.8622 -95.5656 93° East 204 235 13,100 -60 Level Minneapolis Center
01:09PM 40.8589 -95.4756 93° East 205 236 13,000  Descending Minneapolis Center
01:10PM 40.8561 -95.4011 93° East 204 235 13,100  Climbing Minneapolis Center
01:11PM 40.8533 -95.3247 93° East 207 238 13,000  Descending Minneapolis Center
01:12PM 40.8503 -95.2500 93° East 206 237 13,100  Climbing Minneapolis Center
01:13PM 40.8464 -95.1753 94° East 204 235 13,000  Descending Minneapolis Center
01:14PM 40.8447 -95.1011 92° East 204 235 13,100  Climbing Minneapolis Center
01:15PM 40.8425 -95.0261 92° East 203 234 13,000  Descending Minneapolis Center
01:16PM 40.8394 -94.9358 93° East 205 236 13,100  Climbing Minneapolis Center
01:17PM 40.8347 -94.8619 95° East 204 235 13,100  Level Minneapolis Center
01:18PM 40.8325 -94.7858 92° East 206 237 13,100 -60 Level Minneapolis Center
01:19PM 40.8292 -94.7117 93° East 204 235 13,000 -60 Descending Minneapolis Center
01:20PM 40.8264 -94.6361 93° East 205 236 13,000  Level Minneapolis Center
01:21PM 40.8236 -94.5539 93° East 204 235 13,000  Level Minneapolis Center
01:22PM 40.8189 -94.4806 95° East 202 232 13,000  Level Minneapolis Center
01:25PM 40.8117 -94.2872 93° East 204 235 13,000  Level Kansas City Center
01:25PM 40.8100 -94.2583 94° East 205 236 13,100  Climbing Minneapolis Center
01:26PM 40.8042 -94.1700 95° East 203 234 13,000 -60 Descending Minneapolis Center
01:27PM 40.8017 -94.0942 92° East 205 236 13,000  Level Minneapolis Center
01:28PM 40.7986 -94.0192 93° East 207 238 13,000  Level Minneapolis Center
01:29PM 40.7950 -93.9447 94° East 205 236 13,000  Level Minneapolis Center
01:30PM 40.7892 -93.8708 96° East 204 235 13,000  Level Minneapolis Center
01:31PM 40.7869 -93.7950 92° East 206 237 13,000  Level Minneapolis Center
01:32PM 40.7817 -93.7056 94° East 206 237 13,100  Climbing Minneapolis Center
01:33PM 40.7781 -93.6306 94° East 206 237 13,000 -60 Descending Minneapolis Center
01:34PM 40.7744 -93.5558 94° East 206 237 13,000  Level Minneapolis Center
01:36PM 40.7711 -93.4800 93° East 207 238 13,000  Level Minneapolis Center
01:37PM 40.7678 -93.4042 93° East 208 239 13,000  Level Minneapolis Center
01:37PM 40.7642 -93.3583 96° East 208 239 13,000  Level Chicago Center
01:38PM 40.7600 -93.2831 94° East 207 238 13,000  Level Chicago Center
01:39PM 40.7556 -93.2094 95° East 205 236 13,000  Level Chicago Center
01:40PM 40.7514 -93.1342 94° East 206 237 13,000  Level Chicago Center
01:41PM 40.7461 -93.0447 94° East 206 237 13,100  Climbing Chicago Center
01:42PM 40.7425 -92.9692 94° East 206 237 13,100  Level Chicago Center
01:43PM 40.7386 -92.8942 94° East 207 238 13,100  Level Chicago Center
01:44PM 40.7339 -92.8200 95° East 205 236 13,100  Level Chicago Center
01:45PM 40.7300 -92.7436 94° East 207 238 13,100  Level Chicago Center
01:46PM 40.7250 -92.6686 95° East 207 238 13,100  Level Chicago Center
01:47PM 40.7239 -92.6542 96° East 206 237 13,100  Level Chicago Center
01:48PM 40.7194 -92.5639 94° East 206 237 13,100  Level Chicago Center
01:49PM 40.7150 -92.4869 94° East 210 242 13,100  Level Chicago Center
01:50PM 40.7092 -92.4117 96° East 208 239 13,100  Level Chicago Center
01:51PM 40.7047 -92.3356 94° East 210 242 13,100  Level Chicago Center
01:52PM 40.7006 -92.2603 94° East 208 239 13,100  Level Chicago Center
01:53PM 40.6944 -92.1706 95° East 206 237 13,100  Level Chicago Center
01:54PM 40.6900 -92.0942 94° East 210 242 13,100  Level Chicago Center
01:55PM 40.6856 -92.0183 94° East 209 241 13,100  Level Chicago Center
01:56PM 40.6800 -91.9436 96° East 208 239 13,100  Level Chicago Center
01:57PM 40.6739 -91.8689 96° East 206 237 13,100  Level Chicago Center
01:58PM 40.6694 -91.7933 94° East 208 239 13,100  Level Chicago Center
01:59PM 40.6625 -91.7031 96° East 208 239 13,100  Level Chicago Center
02:00PM 40.6583 -91.6272 94° East 208 239 13,100  Level Chicago Center
02:01PM 40.6528 -91.5528 96° East 208 239 13,100  Level Chicago Center
02:02PM 40.6483 -91.4767 94° East 209 241 13,100  Level Chicago Center
02:03PM 40.6422 -91.4006 96° East 210 242 13,100  Level Chicago Center
02:04PM 40.6364 -91.3247 96° East 209 241 13,100  Level Chicago Center
02:05PM 40.6292 -91.2422 97° East 208 239 13,100  Level Chicago Center
02:06PM 40.6233 -91.1661 96° East 209 241 13,100  Level Kansas City Center
02:07PM 40.6194 -91.0897 94° East 208 239 13,100  Level Kansas City Center
02:08PM 40.6119 -91.0003 96° East 206 237 13,100  Level Chicago Center
02:09PM 40.6069 -90.9242 95° East 208 239 13,100  Level Chicago Center
02:10PM 40.6025 -90.8483 94° East 208 239 13,100  Level Chicago Center
02:11PM 40.5961 -90.7728 96° East 208 239 13,100  Level Chicago Center
02:12PM 40.5897 -90.6961 96° East 210 242 13,100  Level Chicago Center
02:13PM 40.5836 -90.6203 96° East 210 242 13,100  Level Chicago Center
02:14PM 40.5769 -90.5442 97° East 210 242 13,100  Level Chicago Center
02:15PM 40.5706 -90.4533 95° East 208 239 13,100  Level Chicago Center
02:17PM 40.5647 -90.3778 96° East 209 241 13,100  Level Chicago Center
02:18PM 40.5581 -90.3028 97° East 208 239 13,100  Level Chicago Center
02:19PM 40.5522 -90.2264 96° East 210 242 13,100  Level Chicago Center
02:20PM 40.5464 -90.1511 96° East 209 241 13,100  Level Chicago Center
02:21PM 40.5397 -90.0772 97° East 206 237 13,100  Level Chicago Center
02:22PM 40.5322 -89.9869 96° East 207 238 13,100  Level Chicago Center
02:23PM 40.5264 -89.9117 96° East 209 241 13,100  Level Chicago Center
02:24PM 40.5194 -89.8369 97° East 209 241 13,100  Level Chicago Center
02:25PM 40.5131 -89.7622 96° East 208 239 13,100  Level Chicago Center
02:26PM 40.5083 -89.6869 95° East 209 241 13,100  Level Chicago Center
02:27PM 40.4997 -89.5961 97° East 207 238 13,100  Level Chicago Center
02:28PM 40.4933 -89.5208 96° East 209 241 13,100  Level Chicago Center
02:29PM 40.4872 -89.4456 96° East 209 241 13,100  Level Chicago Center
02:30PM 40.4800 -89.3703 97° East 209 241 13,100  Level Chicago Center
02:31PM 40.4739 -89.2942 96° East 209 241 13,100  Level Chicago Center
02:32PM 40.4658 -89.2042 97° East 208 239 13,100  Level Chicago Center
02:33PM 40.4592 -89.1289 97° East 209 241 13,100  Level Chicago Center
02:34PM 40.4522 -89.0536 97° East 208 239 13,100  Level Chicago Center
02:35PM 40.4444 -88.9794 98° East 207 238 13,100  Level Chicago Center
02:36PM 40.4378 -88.9039 97° East 208 239 13,100  Level Chicago Center
02:37PM 40.4311 -88.8281 97° East 209 241 13,100  Level Chicago Center
02:38PM 40.4222 -88.7381 97° East 207 238 13,100  Level Chicago Center
02:39PM 40.4153 -88.6636 97° East 206 237 13,100  Level Chicago Center
02:40PM 40.4086 -88.5897 97° East 205 236 13,100  Level Chicago Center
02:41PM 40.4017 -88.5156 97° East 205 236 13,100 -60 Level Chicago Center
02:42PM 40.3942 -88.4308 97° East 205 236 13,000 -60 Descending Chicago Center
02:43PM 40.3867 -88.3561 97° East 207 238 13,000  Level Chicago Center
02:44PM 40.3789 -88.2839 98° East 204 235 13,000  Level Chicago Center
02:45PM 40.3711 -88.2119 98° East 201 231 13,000  Level Chicago Center
02:46PM 40.3642 -88.1397 97° East 201 231 13,000  Level Chicago Center
02:48PM 40.3558 -88.0525 97° East 202 232 13,000  Level Chicago Center
02:49PM 40.3494 -87.9792 96° East 205 236 13,000  Level Chicago Center
02:50PM 40.3411 -87.9069 99° East 203 234 13,000  Level Chicago Center
02:51PM 40.3344 -87.8347 97° East 203 234 13,000  Level Chicago Center
02:52PM 40.3261 -87.7625 99° East 202 232 13,000  Level Chicago Center
02:53PM 40.3203 -87.6903 96° East 201 231 13,000  Level Chicago Center
02:54PM 40.3103 -87.6042 99° East 201 231 13,000  Level Chicago Center
02:55PM 40.3031 -87.5314 97° East 204 235 13,000  Level Chicago Center
02:56PM 40.2953 -87.4586 98° East 204 235 13,000  Level Chicago Center
02:57PM 40.2864 -87.3922 100° East 198 228 13,100  Climbing Chicago Center
02:58PM 40.2781 -87.3022 97° East 206 237 13,100  Level Chicago Center
02:59PM 40.2700 -87.2286 98° East 206 237 13,100  Level Chicago Center
03:00PM 40.2619 -87.1561 98° East 203 234 13,100  Level Chicago Center
03:01PM 40.2536 -87.0822 98° East 205 236 13,100 -60 Level Chicago Center
03:02PM 40.2453 -87.0089 98° East 204 235 13,000 -60 Descending Chicago Center
03:03PM 40.2372 -86.9331 98° East 209 241 13,000  Level Chicago Center
03:04PM 40.2289 -86.8603 99° East 205 236 13,000  Level Chicago Center
03:05PM 40.2192 -86.7711 98° East 206 237 13,000  Level Chicago Center
03:06PM 40.2106 -86.6961 99° East 207 238 13,000  Level Chicago Center
03:07PM 40.2028 -86.6222 98° East 208 239 13,000  Level Chicago Center
03:08PM 40.1947 -86.5486 98° East 206 237 13,000 -120 Level Chicago Center
03:09PM 40.1853 -86.4736 99° East 207 238 12,800 -300 Descending Chicago Center
03:10PM 40.1767 -86.3942 98° East 215 247 12,400 -420 Descending Chicago Center
03:11PM 40.1672 -86.3128 99° East 223 257 12,000 -540 Descending Chicago Center
03:12PM 40.1564 -86.2158 98° East 223 257 11,400 -600 Descending Chicago Center
03:13PM 40.1475 -86.1350 98° East 224 258 10,800 -420 Descending Chicago Center
03:16PM 40.1228 -85.9464 100° East 220 253 10,100 -240 Descending Indianapolis Center
03:17PM 40.1133 -85.8742 100° East 212 244 10,000 -240 Descending Indianapolis Center
03:18PM 40.1044 -85.8031 99° East 203 234 9,700 -360 Descending Indianapolis Center
03:19PM 40.0956 -85.7267 99° East 210 242 9,300 -360 Descending Indianapolis Center
03:20PM 40.0875 -85.6519 98° East 209 241 9,000 -180 Descending Indianapolis Center
03:21PM 40.0800 -85.5808 98° East 202 232 9,000 -180 Level Indianapolis Center
03:22PM 40.0697 -85.5100 101° East 199 229 8,700 -480 Descending Indianapolis Center
03:23PM 40.0500 -85.3667 100° East 211 243 7,900 -360 Descending Indianapolis TRACON
03:24PM 40.0486 -85.3294 93° East 206 237 7,900 -360 Level Indianapolis Center
03:25PM 40.0369 -85.2478 101° East 210 242 7,300 -360 Descending Indianapolis Center
03:26PM 40.0286 -85.1747 98° East 210 242 7,200 -60 Descending Indianapolis Center
03:27PM 40.0197 -85.1044 99° East 196 226 7,200  Level Indianapolis Center
03:28PM 40.0108 -85.0344 99° East 193 222 7,200  Level Indianapolis Center
03:29PM 40.0158 -84.9531 85° East 199 229 7,200 -180 Level Indianapolis Center
03:30PM 40.0156 -84.8792 90° East 200 230 6,900 -480 Descending Indianapolis Center
03:31PM 40.0158 -84.8025 90° East 213 245 6,300 -540 Descending Indianapolis Center
03:32PM 40.0169 -84.7150 89° East 213 245 5,800 -480 Descending Indianapolis Center
03:33PM 40.0169 -84.6383 90° East 207 238 5,300 -600 Descending Indianapolis Center
03:34PM 40.0189 -84.5647 88° East 205 236 4,700 -480 Descending Indianapolis Center
03:36PM 40.0233 -84.4258 88° East 196 226 3,900 -420 Descending Indianapolis Center
03:38PM 40.0269 -84.3525 86° East 161 185 3,400 -420 Descending Indianapolis Center
03:39PM 40.0092 -84.3028 115° Southeast 143 165 3,100 -540 Descending Indianapolis Center
03:40PM 39.9997 -84.2519 104° East 142 163 2,400 -480 Descending Indianapolis Center
03:41PM 39.9781 -84.2181 130° Southeast 101 116 2,200 -420 Descending Indianapolis Center
03:42PM 39.9575 -84.2142 172° South 75 86 1,700 -600 Descending Indianapolis Center